sensor_id;sensor_type;location;lat;lon;timestamp;pressure;altitude;pressure_sealevel;temperature;humidity
30875;BME280;17581;43.222;27.924;2022-09-27T00:00:03;99698.44;;;20.07;65.72
30875;BME280;17581;43.222;27.924;2022-09-27T00:02:28;99730.00;;;20.36;65.73
30875;BME280;17581;43.222;27.924;2022-09-27T00:04:54;99685.00;;;20.12;65.72
30875;BME280;17581;43.222;27.924;2022-09-27T00:07:20;99682.25;;;20.12;65.67
30875;BME280;17581;43.222;27.924;2022-09-27T00:09:46;99725.16;;;20.38;65.62
30875;BME280;17581;43.222;27.924;2022-09-27T00:12:11;99733.59;;;20.36;65.97
30875;BME280;17581;43.222;27.924;2022-09-27T00:14:36;99726.44;;;20.35;66.11
30875;BME280;17581;43.222;27.924;2022-09-27T00:17:02;99699.06;;;20.16;66.65
30875;BME280;17581;43.222;27.924;2022-09-27T00:19:28;99723.03;;;20.20;66.68
30875;BME280;17581;43.222;27.924;2022-09-27T00:21:53;99685.19;;;19.91;67.05
30875;BME280;17581;43.222;27.924;2022-09-27T00:24:20;99710.41;;;20.06;67.15
30875;BME280;17581;43.222;27.924;2022-09-27T00:26:47;99713.13;;;20.06;67.41
30875;BME280;17581;43.222;27.924;2022-09-27T00:29:14;99693.56;;;19.83;67.43
30875;BME280;17581;43.222;27.924;2022-09-27T00:31:40;99723.00;;;20.00;67.59
30875;BME280;17581;43.222;27.924;2022-09-27T00:34:06;99730.56;;;19.98;67.67
30875;BME280;17581;43.222;27.924;2022-09-27T00:36:33;99734.75;;;19.94;67.93
30875;BME280;17581;43.222;27.924;2022-09-27T00:38:59;99733.69;;;19.89;67.81
30875;BME280;17581;43.222;27.924;2022-09-27T00:41:32;99725.91;;;19.86;68.01
30875;BME280;17581;43.222;27.924;2022-09-27T00:44:46;99693.31;;;19.58;68.16
30875;BME280;17581;43.222;27.924;2022-09-27T00:50:04;99713.03;;;19.67;68.50
30875;BME280;17581;43.222;27.924;2022-09-27T00:52:42;99674.38;;;19.43;68.57
30875;BME280;17581;43.222;27.924;2022-09-27T00:55:18;99717.88;;;19.65;69.09
30875;BME280;17581;43.222;27.924;2022-09-27T00:57:46;99714.53;;;19.63;69.01
30875;BME280;17581;43.222;27.924;2022-09-27T01:00:13;99722.72;;;19.63;69.11
30875;BME280;17581;43.222;27.924;2022-09-27T01:02:44;99712.22;;;19.60;69.21
30875;BME280;17581;43.222;27.924;2022-09-27T01:05:12;99697.69;;;19.52;69.18
30875;BME280;17581;43.222;27.924;2022-09-27T01:07:39;99682.16;;;19.46;69.28
30875;BME280;17581;43.222;27.924;2022-09-27T01:10:05;99678.81;;;19.44;69.19
30875;BME280;17581;43.222;27.924;2022-09-27T01:13:01;99708.63;;;19.59;68.98
30875;BME280;17581;43.222;27.924;2022-09-27T01:29:08;99685.34;;;19.57;69.39
30875;BME280;17581;43.222;27.924;2022-09-27T01:42:27;99688.50;;;19.67;69.33
30875;BME280;17581;43.222;27.924;2022-09-27T01:47:33;99672.94;;;19.61;69.62
30875;BME280;17581;43.222;27.924;2022-09-27T01:50:12;99652.97;;;19.40;69.82
30875;BME280;17581;43.222;27.924;2022-09-27T01:53:05;99658.03;;;19.43;69.75
30875;BME280;17581;43.222;27.924;2022-09-27T01:55:36;99681.78;;;19.56;69.79
30875;BME280;17581;43.222;27.924;2022-09-27T01:58:13;99657.81;;;19.51;69.64
30875;BME280;17581;43.222;27.924;2022-09-27T02:00:41;99669.19;;;19.62;69.79
30875;BME280;17581;43.222;27.924;2022-09-27T02:03:13;99672.56;;;19.70;69.57
30875;BME280;17581;43.222;27.924;2022-09-27T02:05:47;99668.81;;;19.78;69.34
30875;BME280;17581;43.222;27.924;2022-09-27T02:08:35;99623.00;;;19.60;68.85
30875;BME280;17581;43.222;27.924;2022-09-27T02:11:05;99620.53;;;19.72;68.48
30875;BME280;17581;43.222;27.924;2022-09-27T02:13:39;99635.44;;;19.89;68.01
30875;BME280;17581;43.222;27.924;2022-09-27T02:18:54;99637.56;;;19.93;67.42
30875;BME280;17581;43.222;27.924;2022-09-27T02:21:24;99650.75;;;20.03;67.37
30875;BME280;17581;43.222;27.924;2022-09-27T02:23:58;99640.25;;;20.00;67.31
30875;BME280;17581;43.222;27.924;2022-09-27T02:26:43;99677.66;;;20.19;66.85
30875;BME280;17581;43.222;27.924;2022-09-27T02:29:23;99674.09;;;20.25;66.57
30875;BME280;17581;43.222;27.924;2022-09-27T02:31:51;99594.06;;;19.79;66.65
30875;BME280;17581;43.222;27.924;2022-09-27T02:34:20;99678.13;;;20.42;66.42
30875;BME280;17581;43.222;27.924;2022-09-27T02:36:47;99631.47;;;20.24;65.88
30875;BME280;17581;43.222;27.924;2022-09-27T02:39:13;99642.63;;;20.36;65.37
30875;BME280;17581;43.222;27.924;2022-09-27T02:41:38;99664.00;;;20.58;64.97
30875;BME280;17581;43.222;27.924;2022-09-27T02:44:09;99679.53;;;20.64;64.71
30875;BME280;17581;43.222;27.924;2022-09-27T02:49:30;99647.41;;;20.67;63.81
30875;BME280;17581;43.222;27.924;2022-09-27T03:00:29;99629.75;;;20.62;63.41
30875;BME280;17581;43.222;27.924;2022-09-27T03:03:16;99655.75;;;20.85;63.41
30875;BME280;17581;43.222;27.924;2022-09-27T03:05:55;99620.94;;;20.60;63.22
30875;BME280;17581;43.222;27.924;2022-09-27T03:08:25;99633.09;;;20.64;63.10
30875;BME280;17581;43.222;27.924;2022-09-27T03:10:51;99630.34;;;20.64;62.90
30875;BME280;17581;43.222;27.924;2022-09-27T03:13:17;99641.50;;;20.70;63.02
30875;BME280;17581;43.222;27.924;2022-09-27T03:15:42;99679.69;;;20.96;63.05
30875;BME280;17581;43.222;27.924;2022-09-27T03:18:07;99640.22;;;20.79;62.83
30875;BME280;17581;43.222;27.924;2022-09-27T03:20:33;99672.94;;;21.05;62.82
30875;BME280;17581;43.222;27.924;2022-09-27T03:22:58;99670.84;;;21.00;63.01
30875;BME280;17581;43.222;27.924;2022-09-27T03:25:24;99665.16;;;21.02;63.09
30875;BME280;17581;43.222;27.924;2022-09-27T03:27:51;99641.66;;;20.88;63.12
30875;BME280;17581;43.222;27.924;2022-09-27T03:30:16;99627.78;;;20.83;63.33
30875;BME280;17581;43.222;27.924;2022-09-27T03:32:43;99646.88;;;20.96;63.73
30875;BME280;17581;43.222;27.924;2022-09-27T03:35:09;99610.56;;;20.82;63.86
30875;BME280;17581;43.222;27.924;2022-09-27T03:37:35;99630.91;;;20.93;63.93
30875;BME280;17581;43.222;27.924;2022-09-27T03:40:01;99577.41;;;20.66;64.06
30875;BME280;17581;43.222;27.924;2022-09-27T03:42:26;99600.50;;;20.76;64.50
30875;BME280;17581;43.222;27.924;2022-09-27T03:44:52;99608.44;;;20.91;64.53
30875;BME280;17581;43.222;27.924;2022-09-27T03:47:17;99611.19;;;20.84;64.79
30875;BME280;17581;43.222;27.924;2022-09-27T03:49:43;99596.94;;;20.69;64.53
30875;BME280;17581;43.222;27.924;2022-09-27T03:52:09;99606.56;;;20.85;64.65
30875;BME280;17581;43.222;27.924;2022-09-27T03:54:34;99599.66;;;20.76;64.80
30875;BME280;17581;43.222;27.924;2022-09-27T03:57:00;99596.94;;;20.76;65.08
30875;BME280;17581;43.222;27.924;2022-09-27T03:59:25;99589.81;;;20.61;65.46
30875;BME280;17581;43.222;27.924;2022-09-27T04:01:51;99578.06;;;20.54;65.61
30875;BME280;17581;43.222;27.924;2022-09-27T04:04:16;99598.22;;;20.67;65.70
30875;BME280;17581;43.222;27.924;2022-09-27T04:06:43;99611.63;;;20.75;66.21
30875;BME280;17581;43.222;27.924;2022-09-27T04:09:08;99621.31;;;20.71;66.23
30875;BME280;17581;43.222;27.924;2022-09-27T04:11:33;99603.25;;;20.70;66.08
30875;BME280;17581;43.222;27.924;2022-09-27T04:13:59;99602.00;;;20.66;66.27
30875;BME280;17581;43.222;27.924;2022-09-27T04:16:24;99567.16;;;20.48;66.38
30875;BME280;17581;43.222;27.924;2022-09-27T04:18:51;99576.81;;;20.50;66.42
30875;BME280;17581;43.222;27.924;2022-09-27T04:21:17;99604.72;;;20.66;66.47
30875;BME280;17581;43.222;27.924;2022-09-27T04:23:44;99578.50;;;20.45;66.69
30875;BME280;17581;43.222;27.924;2022-09-27T04:26:11;99596.34;;;20.60;66.84
30875;BME280;17581;43.222;27.924;2022-09-27T04:28:37;99573.66;;;20.47;66.80
30875;BME280;17581;43.222;27.924;2022-09-27T04:31:03;99596.97;;;20.62;66.68
30875;BME280;17581;43.222;27.924;2022-09-27T04:33:29;99607.03;;;20.69;66.50
30875;BME280;17581;43.222;27.924;2022-09-27T04:35:54;99588.59;;;20.51;66.93
30875;BME280;17581;43.222;27.924;2022-09-27T04:38:38;99592.34;;;20.56;66.70
30875;BME280;17581;43.222;27.924;2022-09-27T04:41:04;99633.06;;;20.71;66.96
30875;BME280;17581;43.222;27.924;2022-09-27T04:43:29;99619.84;;;20.75;66.80
30875;BME280;17581;43.222;27.924;2022-09-27T04:45:55;99622.13;;;20.78;66.96
30875;BME280;17581;43.222;27.924;2022-09-27T04:48:20;99632.03;;;20.79;67.05
30875;BME280;17581;43.222;27.924;2022-09-27T04:50:46;99603.69;;;20.60;67.17
30875;BME280;17581;43.222;27.924;2022-09-27T04:53:13;99615.41;;;20.74;66.92
30875;BME280;17581;43.222;27.924;2022-09-27T04:55:39;99606.59;;;20.72;67.14
30875;BME280;17581;43.222;27.924;2022-09-27T04:58:04;99565.03;;;20.50;67.25
30875;BME280;17581;43.222;27.924;2022-09-27T05:00:30;99619.13;;;20.92;67.29
30875;BME280;17581;43.222;27.924;2022-09-27T05:02:56;99618.25;;;20.98;67.84
30875;BME280;17581;43.222;27.924;2022-09-27T05:05:22;99618.91;;;21.00;67.40
30875;BME280;17581;43.222;27.924;2022-09-27T05:07:47;99554.69;;;20.72;67.16
30875;BME280;17581;43.222;27.924;2022-09-27T05:10:13;99608.59;;;21.09;66.89
30875;BME280;17581;43.222;27.924;2022-09-27T05:12:39;99617.56;;;21.23;66.65
30875;BME280;17581;43.222;27.924;2022-09-27T05:15:05;99627.19;;;21.32;66.71
30875;BME280;17581;43.222;27.924;2022-09-27T05:17:30;99608.88;;;21.32;66.35
30875;BME280;17581;43.222;27.924;2022-09-27T05:19:56;99605.91;;;21.40;65.60
30875;BME280;17581;43.222;27.924;2022-09-27T05:22:21;99611.28;;;21.53;65.74
30875;BME280;17581;43.222;27.924;2022-09-27T05:24:47;99545.00;;;21.20;64.69
30875;BME280;17581;43.222;27.924;2022-09-27T05:27:13;99612.25;;;21.65;64.45
30875;BME280;17581;43.222;27.924;2022-09-27T05:29:43;99613.34;;;21.64;64.39
30875;BME280;17581;43.222;27.924;2022-09-27T05:32:08;99618.94;;;21.76;63.67
30875;BME280;17581;43.222;27.924;2022-09-27T05:34:34;99612.78;;;21.81;62.76
30875;BME280;17581;43.222;27.924;2022-09-27T05:36:59;99627.13;;;21.76;61.96
30875;BME280;17581;43.222;27.924;2022-09-27T05:39:25;99621.72;;;21.69;61.65
30875;BME280;17581;43.222;27.924;2022-09-27T05:41:50;99611.13;;;21.80;61.24
30875;BME280;17581;43.222;27.924;2022-09-27T05:44:19;99586.75;;;21.71;61.08
30875;BME280;17581;43.222;27.924;2022-09-27T05:46:44;99591.97;;;21.80;60.40
30875;BME280;17581;43.222;27.924;2022-09-27T05:49:10;99573.78;;;21.92;59.86
30875;BME280;17581;43.222;27.924;2022-09-27T05:51:36;99571.34;;;22.02;60.03
30875;BME280;17581;43.222;27.924;2022-09-27T05:54:01;99578.28;;;22.29;59.44
30875;BME280;17581;43.222;27.924;2022-09-27T05:56:27;99580.78;;;22.31;58.80
30875;BME280;17581;43.222;27.924;2022-09-27T05:58:53;99577.84;;;22.32;58.80
30875;BME280;17581;43.222;27.924;2022-09-27T06:01:18;99595.94;;;22.33;58.27
30875;BME280;17581;43.222;27.924;2022-09-27T06:03:44;99587.53;;;22.10;58.35
30875;BME280;17581;43.222;27.924;2022-09-27T06:06:11;99586.44;;;22.11;58.42
30875;BME280;17581;43.222;27.924;2022-09-27T06:08:38;99569.25;;;22.04;58.35
30875;BME280;17581;43.222;27.924;2022-09-27T06:11:07;99594.72;;;22.29;58.41
30875;BME280;17581;43.222;27.924;2022-09-27T06:13:33;99566.75;;;22.20;58.17
30875;BME280;17581;43.222;27.924;2022-09-27T06:15:59;99551.94;;;22.28;57.68
30875;BME280;17581;43.222;27.924;2022-09-27T06:18:24;99590.66;;;22.56;57.30
30875;BME280;17581;43.222;27.924;2022-09-27T06:20:50;99593.94;;;22.65;56.85
30875;BME280;17581;43.222;27.924;2022-09-27T06:23:19;99591.59;;;22.68;56.25
30875;BME280;17581;43.222;27.924;2022-09-27T06:25:45;99592.47;;;22.62;56.14
30875;BME280;17581;43.222;27.924;2022-09-27T06:28:14;99569.44;;;22.45;56.39
30875;BME280;17581;43.222;27.924;2022-09-27T06:30:44;99592.00;;;22.47;56.34
30875;BME280;17581;43.222;27.924;2022-09-27T06:33:13;99607.66;;;22.40;56.59
30875;BME280;17581;43.222;27.924;2022-09-27T06:35:40;99593.47;;;22.25;57.06
30875;BME280;17581;43.222;27.924;2022-09-27T06:38:08;99578.09;;;22.24;57.06
30875;BME280;17581;43.222;27.924;2022-09-27T06:40:35;99589.72;;;22.44;56.96
30875;BME280;17581;43.222;27.924;2022-09-27T06:43:05;99557.13;;;22.36;56.46
30875;BME280;17581;43.222;27.924;2022-09-27T06:45:32;99587.59;;;22.64;56.71
30875;BME280;17581;43.222;27.924;2022-09-27T06:47:59;99579.72;;;22.74;56.75
30875;BME280;17581;43.222;27.924;2022-09-27T06:50:31;99536.13;;;22.66;56.42
30875;BME280;17581;43.222;27.924;2022-09-27T06:52:57;99572.38;;;23.05;55.42
30875;BME280;17581;43.222;27.924;2022-09-27T06:55:23;99548.38;;;23.00;55.07
30875;BME280;17581;43.222;27.924;2022-09-27T06:57:53;99580.09;;;23.26;54.89
30875;BME280;17581;43.222;27.924;2022-09-27T07:00:37;99545.41;;;23.02;53.89
30875;BME280;17581;43.222;27.924;2022-09-27T07:03:03;99563.69;;;23.08;54.13
30875;BME280;17581;43.222;27.924;2022-09-27T07:05:29;99554.66;;;23.19;53.96
30875;BME280;17581;43.222;27.924;2022-09-27T07:07:56;99573.28;;;23.47;54.32
30875;BME280;17581;43.222;27.924;2022-09-27T07:10:26;99578.22;;;23.56;53.67
30875;BME280;17581;43.222;27.924;2022-09-27T07:12:53;99575.75;;;23.66;53.71
30875;BME280;17581;43.222;27.924;2022-09-27T07:15:19;99564.75;;;23.66;53.33
30875;BME280;17581;43.222;27.924;2022-09-27T07:17:46;99568.38;;;23.78;53.24
30875;BME280;17581;43.222;27.924;2022-09-27T07:20:12;99537.31;;;23.66;52.79
30875;BME280;17581;43.222;27.924;2022-09-27T07:22:42;99552.56;;;23.74;52.72
30875;BME280;17581;43.222;27.924;2022-09-27T07:25:09;99541.34;;;23.64;52.13
30875;BME280;17581;43.222;27.924;2022-09-27T07:27:35;99554.38;;;23.68;52.20
30875;BME280;17581;43.222;27.924;2022-09-27T07:30:00;99573.84;;;23.78;52.51
30875;BME280;17581;43.222;27.924;2022-09-27T07:32:26;99534.88;;;23.58;52.26
30875;BME280;17581;43.222;27.924;2022-09-27T07:34:51;99519.50;;;23.57;52.26
30875;BME280;17581;43.222;27.924;2022-09-27T07:37:17;99549.13;;;23.78;52.06
30875;BME280;17581;43.222;27.924;2022-09-27T07:39:43;99562.63;;;23.92;52.09
30875;BME280;17581;43.222;27.924;2022-09-27T07:42:09;99554.28;;;23.87;51.85
30875;BME280;17581;43.222;27.924;2022-09-27T07:44:34;99558.59;;;23.94;51.67
30875;BME280;17581;43.222;27.924;2022-09-27T07:47:00;99540.44;;;23.81;51.45
30875;BME280;17581;43.222;27.924;2022-09-27T07:49:25;99578.91;;;24.05;51.59
30875;BME280;17581;43.222;27.924;2022-09-27T07:51:51;99572.94;;;24.08;51.20
30875;BME280;17581;43.222;27.924;2022-09-27T07:54:16;99553.09;;;24.06;51.10
30875;BME280;17581;43.222;27.924;2022-09-27T07:56:44;99529.19;;;23.95;51.40
30875;BME280;17581;43.222;27.924;2022-09-27T07:59:09;99561.38;;;24.29;51.02
30875;BME280;17581;43.222;27.924;2022-09-27T08:01:35;99564.38;;;24.39;50.94
30875;BME280;17581;43.222;27.924;2022-09-27T08:04:01;99524.13;;;24.21;50.83
30875;BME280;17581;43.222;27.924;2022-09-27T08:06:26;99543.56;;;24.43;51.25
30875;BME280;17581;43.222;27.924;2022-09-27T08:08:52;99558.94;;;24.56;51.07
30875;BME280;17581;43.222;27.924;2022-09-27T08:11:19;99542.81;;;24.59;51.05
30875;BME280;17581;43.222;27.924;2022-09-27T08:13:46;99517.13;;;24.54;50.83
30875;BME280;17581;43.222;27.924;2022-09-27T08:16:14;99507.31;;;24.58;50.61
30875;BME280;17581;43.222;27.924;2022-09-27T08:18:40;99519.69;;;24.83;50.70
30875;BME280;17581;43.222;27.924;2022-09-27T08:21:05;99473.06;;;24.77;50.45
30875;BME280;17581;43.222;27.924;2022-09-27T08:23:31;99530.44;;;25.25;50.10
30875;BME280;17581;43.222;27.924;2022-09-27T08:25:56;99484.88;;;25.17;49.79
30875;BME280;17581;43.222;27.924;2022-09-27T08:28:26;99501.63;;;25.44;49.62
30875;BME280;17581;43.222;27.924;2022-09-27T08:30:52;99516.41;;;25.55;49.49
30875;BME280;17581;43.222;27.924;2022-09-27T08:33:18;99488.66;;;25.56;49.39
30875;BME280;17581;43.222;27.924;2022-09-27T08:35:44;99481.47;;;25.55;49.14
30875;BME280;17581;43.222;27.924;2022-09-27T08:38:10;99500.25;;;25.58;49.04
30875;BME280;17581;43.222;27.924;2022-09-27T08:46:10;99479.59;;;25.44;48.49
30875;BME280;17581;43.222;27.924;2022-09-27T08:48:39;99493.56;;;25.54;48.53
30875;BME280;17581;43.222;27.924;2022-09-27T08:51:10;99472.91;;;25.40;48.54
30875;BME280;17581;43.222;27.924;2022-09-27T08:53:52;99486.75;;;25.45;48.33
30875;BME280;17581;43.222;27.924;2022-09-27T08:56:19;99492.22;;;25.57;48.54
30875;BME280;17581;43.222;27.924;2022-09-27T08:58:52;99496.91;;;25.73;48.67
30875;BME280;17581;43.222;27.924;2022-09-27T09:01:20;99479.47;;;25.67;48.42
30875;BME280;17581;43.222;27.924;2022-09-27T09:03:52;99455.50;;;25.51;48.17
30875;BME280;17581;43.222;27.924;2022-09-27T09:06:25;99472.09;;;25.73;48.04
30875;BME280;17581;43.222;27.924;2022-09-27T09:09:04;99494.78;;;25.96;47.99
30875;BME280;17581;43.222;27.924;2022-09-27T09:14:51;99479.31;;;26.12;48.15
30875;BME280;17581;43.222;27.924;2022-09-27T09:31:46;99499.69;;;26.28;48.98
30875;BME280;17581;43.222;27.924;2022-09-27T09:34:17;99499.13;;;26.26;48.96
30875;BME280;17581;43.222;27.924;2022-09-27T09:36:53;99501.09;;;26.30;48.77
30875;BME280;17581;43.222;27.924;2022-09-27T09:39:25;99512.13;;;26.30;48.91
30875;BME280;17581;43.222;27.924;2022-09-27T09:42:09;99504.38;;;26.27;49.34
30875;BME280;17581;43.222;27.924;2022-09-27T09:47:26;99490.25;;;26.24;49.75
30875;BME280;17581;43.222;27.924;2022-09-27T09:50:02;99485.03;;;26.22;49.80
30875;BME280;17581;43.222;27.924;2022-09-27T09:52:39;99491.44;;;26.28;49.95
30875;BME280;17581;43.222;27.924;2022-09-27T09:55:14;99468.41;;;26.17;49.67
30875;BME280;17581;43.222;27.924;2022-09-27T10:00:18;99485.91;;;26.28;49.39
30875;BME280;17581;43.222;27.924;2022-09-27T10:02:45;99487.22;;;26.42;49.51
30875;BME280;17581;43.222;27.924;2022-09-27T10:05:14;99455.03;;;26.26;49.58
30875;BME280;17581;43.222;27.924;2022-09-27T10:07:41;99466.50;;;26.39;49.61
30875;BME280;17581;43.222;27.924;2022-09-27T10:10:10;99446.44;;;26.44;49.36
30875;BME280;17581;43.222;27.924;2022-09-27T10:12:37;99471.31;;;26.49;48.82
30875;BME280;17581;43.222;27.924;2022-09-27T10:15:05;99456.56;;;26.60;48.96
30875;BME280;17581;43.222;27.924;2022-09-27T10:17:39;99451.56;;;26.57;48.82
30875;BME280;17581;43.222;27.924;2022-09-27T10:20:18;99446.56;;;26.54;48.77
30875;BME280;17581;43.222;27.924;2022-09-27T10:22:48;99449.56;;;26.52;49.05
30875;BME280;17581;43.222;27.924;2022-09-27T10:25:18;99445.53;;;26.60;48.92
30875;BME280;17581;43.222;27.924;2022-09-27T10:27:49;99434.50;;;26.60;48.78
30875;BME280;17581;43.222;27.924;2022-09-27T10:32:52;99441.16;;;26.64;48.95
30875;BME280;17581;43.222;27.924;2022-09-27T10:40:37;99414.03;;;27.04;48.82
30875;BME280;17581;43.222;27.924;2022-09-27T10:45:46;99411.25;;;27.63;47.84
30875;BME280;17581;43.222;27.924;2022-09-27T10:48:19;99408.31;;;27.75;50.05
30875;BME280;17581;43.222;27.924;2022-09-27T10:50:58;99394.47;;;27.70;51.83
30875;BME280;17581;43.222;27.924;2022-09-27T10:53:25;99397.38;;;27.95;52.13
30875;BME280;17581;43.222;27.924;2022-09-27T10:55:51;99365.03;;;27.95;51.28
30875;BME280;17581;43.222;27.924;2022-09-27T10:58:28;99396.16;;;27.76;50.90
30875;BME280;17581;43.222;27.924;2022-09-27T11:01:04;99393.50;;;27.96;50.97
30875;BME280;17581;43.222;27.924;2022-09-27T11:03:34;99382.00;;;28.09;50.46
30875;BME280;17581;43.222;27.924;2022-09-27T11:08:50;99382.84;;;28.09;46.99
30875;BME280;17581;43.222;27.924;2022-09-27T11:11:34;99373.19;;;28.17;46.74
30875;BME280;17581;43.222;27.924;2022-09-27T11:16:41;99383.84;;;28.60;46.02
30875;BME280;17581;43.222;27.924;2022-09-27T11:28:27;99382.09;;;28.29;49.86
30875;BME280;17581;43.222;27.924;2022-09-27T11:39:08;99362.91;;;27.29;52.56
30875;BME280;17581;43.222;27.924;2022-09-27T11:46:40;99351.25;;;26.63;54.80
30875;BME280;17581;43.222;27.924;2022-09-27T11:52:13;99344.25;;;26.29;55.92
30875;BME280;17581;43.222;27.924;2022-09-27T11:54:45;99342.50;;;26.01;56.74
30875;BME280;17581;43.222;27.924;2022-09-27T11:59:56;99334.53;;;26.05;57.44
30875;BME280;17581;43.222;27.924;2022-09-27T12:05:19;99327.88;;;26.01;57.79
30875;BME280;17581;43.222;27.924;2022-09-27T12:10:24;99337.31;;;25.66;58.80
30875;BME280;17581;43.222;27.924;2022-09-27T12:12:52;99307.88;;;25.67;59.10
30875;BME280;17581;43.222;27.924;2022-09-27T12:15:25;99315.50;;;25.81;59.01
30875;BME280;17581;43.222;27.924;2022-09-27T12:20:49;99327.88;;;26.44;57.28
30875;BME280;17581;43.222;27.924;2022-09-27T12:23:20;99324.59;;;26.47;56.82
30875;BME280;17581;43.222;27.924;2022-09-27T12:25:50;99330.59;;;26.66;56.33
30875;BME280;17581;43.222;27.924;2022-09-27T12:28:29;99322.66;;;26.74;55.87
30875;BME280;17581;43.222;27.924;2022-09-27T12:31:03;99330.41;;;26.77;52.44
30875;BME280;17581;43.222;27.924;2022-09-27T12:33:43;99326.69;;;26.88;51.19
30875;BME280;17581;43.222;27.924;2022-09-27T12:36:15;99288.41;;;26.70;51.06
30875;BME280;17581;43.222;27.924;2022-09-27T12:38:49;99331.22;;;26.99;50.86
30875;BME280;17581;43.222;27.924;2022-09-27T12:41:22;99314.69;;;27.04;50.54
30875;BME280;17581;43.222;27.924;2022-09-27T12:43:49;99315.50;;;27.05;50.45
30875;BME280;17581;43.222;27.924;2022-09-27T12:59:45;99307.81;;;27.44;49.48
30875;BME280;17581;43.222;27.924;2022-09-27T13:10:43;99317.19;;;27.85;48.54
30875;BME280;17581;43.222;27.924;2022-09-27T13:13:16;99298.06;;;27.78;48.79
30875;BME280;17581;43.222;27.924;2022-09-27T13:15:43;99309.44;;;27.82;48.75
30875;BME280;17581;43.222;27.924;2022-09-27T13:18:49;99311.91;;;27.83;48.61
30875;BME280;17581;43.222;27.924;2022-09-27T13:32:38;99326.91;;;27.45;49.16
30875;BME280;17581;43.222;27.924;2022-09-27T13:35:24;99329.81;;;27.34;49.64
30875;BME280;17581;43.222;27.924;2022-09-27T13:37:55;99326.69;;;27.25;49.51
30875;BME280;17581;43.222;27.924;2022-09-27T13:46:03;99308.50;;;26.92;50.40
30875;BME280;17581;43.222;27.924;2022-09-27T13:48:44;99327.09;;;27.02;50.16
30875;BME280;17581;43.222;27.924;2022-09-27T13:54:00;99325.50;;;27.11;49.95
30875;BME280;17581;43.222;27.924;2022-09-27T13:59:04;99289.50;;;26.96;50.68
30875;BME280;17581;43.222;27.924;2022-09-27T14:01:38;99322.09;;;26.99;54.60
30875;BME280;17581;43.222;27.924;2022-09-27T14:06:46;99290.78;;;26.08;58.49
30875;BME280;17581;43.222;27.924;2022-09-27T14:09:19;99309.09;;;25.97;59.59
30875;BME280;17581;43.222;27.924;2022-09-27T14:11:51;99303.84;;;25.74;60.45
30875;BME280;17581;43.222;27.924;2022-09-27T14:14:22;99309.16;;;25.81;60.57
30875;BME280;17581;43.222;27.924;2022-09-27T14:16:49;99307.31;;;25.65;60.62
30875;BME280;17581;43.222;27.924;2022-09-27T14:19:21;99316.25;;;25.55;61.16
30875;BME280;17581;43.222;27.924;2022-09-27T14:21:47;99293.47;;;25.26;61.94
30875;BME280;17581;43.222;27.924;2022-09-27T14:27:14;99294.88;;;25.29;63.02
30875;BME280;17581;43.222;27.924;2022-09-27T14:29:54;99299.41;;;25.35;62.86
30875;BME280;17581;43.222;27.924;2022-09-27T14:32:29;99296.00;;;25.28;63.60
30875;BME280;17581;43.222;27.924;2022-09-27T14:35:12;99297.56;;;25.40;63.18
30875;BME280;17581;43.222;27.924;2022-09-27T14:38:02;99307.06;;;25.33;63.37
30875;BME280;17581;43.222;27.924;2022-09-27T14:40:30;99300.91;;;25.26;62.96
30875;BME280;17581;43.222;27.924;2022-09-27T14:43:01;99313.41;;;25.17;63.54
30875;BME280;17581;43.222;27.924;2022-09-27T14:45:35;99299.78;;;24.88;64.64
30875;BME280;17581;43.222;27.924;2022-09-27T14:48:02;99282.03;;;24.51;65.57
30875;BME280;17581;43.222;27.924;2022-09-27T14:50:52;99309.88;;;24.71;65.39
30875;BME280;17581;43.222;27.924;2022-09-27T14:53:27;99294.75;;;24.41;66.65
30875;BME280;17581;43.222;27.924;2022-09-27T14:55:53;99307.19;;;24.43;67.24
30875;BME280;17581;43.222;27.924;2022-09-27T14:58:20;99319.84;;;24.44;67.25
30875;BME280;17581;43.222;27.924;2022-09-27T15:00:51;99312.97;;;24.30;67.70
30875;BME280;17581;43.222;27.924;2022-09-27T15:03:23;99256.72;;;23.93;67.90
30875;BME280;17581;43.222;27.924;2022-09-27T15:05:50;99307.03;;;24.21;68.00
30875;BME280;17581;43.222;27.924;2022-09-27T15:08:16;99313.13;;;24.23;68.37
30875;BME280;17581;43.222;27.924;2022-09-27T15:10:43;99313.84;;;24.19;68.40
30875;BME280;17581;43.222;27.924;2022-09-27T15:13:13;99329.00;;;24.10;68.78
30875;BME280;17581;43.222;27.924;2022-09-27T15:15:40;99332.84;;;24.09;68.87
30875;BME280;17581;43.222;27.924;2022-09-27T15:20:53;99303.97;;;23.95;68.96
30875;BME280;17581;43.222;27.924;2022-09-27T15:23:33;99320.03;;;23.74;69.83
30875;BME280;17581;43.222;27.924;2022-09-27T15:28:49;99347.38;;;23.46;71.96
30875;BME280;17581;43.222;27.924;2022-09-27T15:31:28;99343.78;;;23.34;72.47
30875;BME280;17581;43.222;27.924;2022-09-27T15:33:55;99336.97;;;23.37;72.74
30875;BME280;17581;43.222;27.924;2022-09-27T15:39:15;99326.00;;;23.25;73.40
30875;BME280;17581;43.222;27.924;2022-09-27T15:42:08;99340.19;;;23.33;73.38
30875;BME280;17581;43.222;27.924;2022-09-27T15:44:51;99309.91;;;23.17;73.29
30875;BME280;17581;43.222;27.924;2022-09-27T15:52:41;99361.34;;;23.33;74.00
30875;BME280;17581;43.222;27.924;2022-09-27T15:55:12;99323.28;;;23.13;74.03
30875;BME280;17581;43.222;27.924;2022-09-27T15:57:39;99362.41;;;23.32;73.87
30875;BME280;17581;43.222;27.924;2022-09-27T16:00:09;99343.78;;;23.22;74.23
30875;BME280;17581;43.222;27.924;2022-09-27T16:02:37;99308.94;;;23.00;74.24
30875;BME280;17581;43.222;27.924;2022-09-27T16:05:02;99319.09;;;23.11;74.17
30875;BME280;17581;43.222;27.924;2022-09-27T16:07:28;99362.28;;;23.27;74.39
30875;BME280;17581;43.222;27.924;2022-09-27T16:09:53;99318.63;;;23.14;73.92